sensor_id;sensor_type;location;lat;lon;timestamp;P1;durP1;ratioP1;P2;durP2;ratioP2
10721;SDS011;5412;59.450;18.124;2022-11-11T00:01:09;5.15;;;1.73;;
10721;SDS011;5412;59.450;18.124;2022-11-11T00:03:40;5.03;;;1.30;;
10721;SDS011;5412;59.450;18.124;2022-11-11T00:06:10;5.60;;;1.60;;
10721;SDS011;5412;59.450;18.124;2022-11-11T00:08:38;5.10;;;1.35;;
10721;SDS011;5412;59.450;18.124;2022-11-11T00:11:05;4.80;;;1.50;;
10721;SDS011;5412;59.450;18.124;2022-11-11T00:13:33;8.05;;;2.25;;
10721;SDS011;5412;59.450;18.124;2022-11-11T00:16:03;6.28;;;1.52;;
10721;SDS011;5412;59.450;18.124;2022-11-11T00:18:34;7.63;;;1.20;;
10721;SDS011;5412;59.450;18.124;2022-11-11T00:21:19;5.88;;;1.23;;
10721;SDS011;5412;59.450;18.124;2022-11-11T00:24:03;6.22;;;1.20;;
10721;SDS011;5412;59.450;18.124;2022-11-11T00:26:48;3.30;;;0.98;;
10721;SDS011;5412;59.450;18.124;2022-11-11T00:29:13;6.55;;;1.20;;
10721;SDS011;5412;59.450;18.124;2022-11-11T00:31:39;5.68;;;1.20;;
10721;SDS011;5412;59.450;18.124;2022-11-11T00:34:25;4.13;;;1.45;;
10721;SDS011;5412;59.450;18.124;2022-11-11T00:36:50;3.95;;;1.45;;
10721;SDS011;5412;59.450;18.124;2022-11-11T00:39:16;4.07;;;1.45;;
10721;SDS011;5412;59.450;18.124;2022-11-11T00:41:42;3.97;;;1.45;;
10721;SDS011;5412;59.450;18.124;2022-11-11T00:44:08;7.22;;;1.30;;
10721;SDS011;5412;59.450;18.124;2022-11-11T00:46:33;2.00;;;1.08;;
10721;SDS011;5412;59.450;18.124;2022-11-11T00:49:18;4.75;;;1.50;;
10721;SDS011;5412;59.450;18.124;2022-11-11T00:52:02;6.95;;;1.60;;
10721;SDS011;5412;59.450;18.124;2022-11-11T00:54:27;3.30;;;1.08;;
10721;SDS011;5412;59.450;18.124;2022-11-11T00:56:53;4.00;;;0.95;;
10721;SDS011;5412;59.450;18.124;2022-11-11T00:59:19;9.40;;;1.38;;
10721;SDS011;5412;59.450;18.124;2022-11-11T01:01:44;3.20;;;1.20;;
10721;SDS011;5412;59.450;18.124;2022-11-11T01:04:10;3.25;;;1.05;;
10721;SDS011;5412;59.450;18.124;2022-11-11T01:06:36;5.85;;;1.20;;
10721;SDS011;5412;59.450;18.124;2022-11-11T01:09:05;2.65;;;1.30;;
10721;SDS011;5412;59.450;18.124;2022-11-11T01:11:31;3.58;;;1.65;;
10721;SDS011;5412;59.450;18.124;2022-11-11T01:13:57;3.08;;;1.08;;
10721;SDS011;5412;59.450;18.124;2022-11-11T01:16:24;4.40;;;1.35;;
10721;SDS011;5412;59.450;18.124;2022-11-11T01:18:51;2.95;;;1.20;;
10721;SDS011;5412;59.450;18.124;2022-11-11T01:21:21;4.00;;;1.20;;
10721;SDS011;5412;59.450;18.124;2022-11-11T01:23:48;3.85;;;1.10;;
10721;SDS011;5412;59.450;18.124;2022-11-11T01:28:43;8.38;;;1.20;;
10721;SDS011;5412;59.450;18.124;2022-11-11T01:31:10;3.20;;;1.30;;
10721;SDS011;5412;59.450;18.124;2022-11-11T01:33:37;2.75;;;1.13;;
10721;SDS011;5412;59.450;18.124;2022-11-11T01:36:10;9.15;;;1.13;;
10721;SDS011;5412;59.450;18.124;2022-11-11T01:38:38;3.75;;;1.15;;
10721;SDS011;5412;59.450;18.124;2022-11-11T01:41:05;5.95;;;1.10;;
10721;SDS011;5412;59.450;18.124;2022-11-11T01:43:50;2.95;;;0.98;;
10721;SDS011;5412;59.450;18.124;2022-11-11T01:46:20;6.68;;;1.38;;
10721;SDS011;5412;59.450;18.124;2022-11-11T01:48:53;6.50;;;1.50;;
10721;SDS011;5412;59.450;18.124;2022-11-11T01:54:35;5.95;;;1.50;;
10721;SDS011;5412;59.450;18.124;2022-11-11T01:57:03;3.95;;;1.33;;
10721;SDS011;5412;59.450;18.124;2022-11-11T01:59:33;2.85;;;1.05;;
10721;SDS011;5412;59.450;18.124;2022-11-11T02:02:02;4.15;;;1.20;;
10721;SDS011;5412;59.450;18.124;2022-11-11T02:04:35;2.08;;;1.10;;
10721;SDS011;5412;59.450;18.124;2022-11-11T02:07:20;2.15;;;0.98;;
10721;SDS011;5412;59.450;18.124;2022-11-11T02:09:47;5.55;;;0.95;;
10721;SDS011;5412;59.450;18.124;2022-11-11T02:12:15;1.95;;;0.85;;
10721;SDS011;5412;59.450;18.124;2022-11-11T02:15:00;2.30;;;1.20;;
10721;SDS011;5412;59.450;18.124;2022-11-11T02:17:26;3.58;;;0.95;;
10721;SDS011;5412;59.450;18.124;2022-11-11T02:19:55;2.03;;;0.98;;
10721;SDS011;5412;59.450;18.124;2022-11-11T02:22:30;3.80;;;1.10;;
10721;SDS011;5412;59.450;18.124;2022-11-11T02:25:03;3.58;;;1.30;;
10721;SDS011;5412;59.450;18.124;2022-11-11T02:27:33;3.92;;;1.10;;
10721;SDS011;5412;59.450;18.124;2022-11-11T02:30:03;2.55;;;1.15;;
10721;SDS011;5412;59.450;18.124;2022-11-11T02:32:31;5.82;;;1.35;;
10721;SDS011;5412;59.450;18.124;2022-11-11T02:34:57;4.43;;;1.58;;
10721;SDS011;5412;59.450;18.124;2022-11-11T02:37:23;5.40;;;1.02;;
10721;SDS011;5412;59.450;18.124;2022-11-11T02:39:51;2.90;;;0.90;;
10721;SDS011;5412;59.450;18.124;2022-11-11T02:42:21;3.10;;;1.05;;
10721;SDS011;5412;59.450;18.124;2022-11-11T02:44:48;4.47;;;1.00;;
10721;SDS011;5412;59.450;18.124;2022-11-11T02:47:14;1.73;;;1.15;;
10721;SDS011;5412;59.450;18.124;2022-11-11T02:49:40;3.33;;;1.00;;
10721;SDS011;5412;59.450;18.124;2022-11-11T02:52:06;2.88;;;0.90;;
10721;SDS011;5412;59.450;18.124;2022-11-11T02:54:31;3.10;;;1.00;;
10721;SDS011;5412;59.450;18.124;2022-11-11T02:56:57;1.45;;;0.75;;
10721;SDS011;5412;59.450;18.124;2022-11-11T02:59:33;3.72;;;1.17;;
10721;SDS011;5412;59.450;18.124;2022-11-11T03:01:59;2.95;;;1.17;;
10721;SDS011;5412;59.450;18.124;2022-11-11T03:04:25;1.65;;;0.95;;
10721;SDS011;5412;59.450;18.124;2022-11-11T03:06:51;5.55;;;1.55;;
10721;SDS011;5412;59.450;18.124;2022-11-11T03:09:16;5.00;;;1.00;;
10721;SDS011;5412;59.450;18.124;2022-11-11T03:11:42;3.20;;;1.30;;
10721;SDS011;5412;59.450;18.124;2022-11-11T03:14:08;3.10;;;0.95;;
10721;SDS011;5412;59.450;18.124;2022-11-11T03:16:33;4.22;;;0.95;;
10721;SDS011;5412;59.450;18.124;2022-11-11T03:19:18;3.55;;;1.10;;
10721;SDS011;5412;59.450;18.124;2022-11-11T03:21:44;2.85;;;1.00;;
10721;SDS011;5412;59.450;18.124;2022-11-11T03:24:10;3.60;;;0.98;;
10721;SDS011;5412;59.450;18.124;2022-11-11T03:26:36;2.35;;;0.80;;
10721;SDS011;5412;59.450;18.124;2022-11-11T03:29:02;3.47;;;0.98;;
10721;SDS011;5412;59.450;18.124;2022-11-11T03:31:28;7.07;;;1.38;;
10721;SDS011;5412;59.450;18.124;2022-11-11T03:33:54;6.43;;;0.77;;
10721;SDS011;5412;59.450;18.124;2022-11-11T03:36:19;3.50;;;1.02;;
10721;SDS011;5412;59.450;18.124;2022-11-11T03:39:05;3.88;;;1.40;;
10721;SDS011;5412;59.450;18.124;2022-11-11T03:41:31;3.53;;;0.85;;
10721;SDS011;5412;59.450;18.124;2022-11-11T03:43:56;0.80;;;0.80;;
10721;SDS011;5412;59.450;18.124;2022-11-11T03:46:22;1.17;;;0.73;;
10721;SDS011;5412;59.450;18.124;2022-11-11T03:48:48;3.33;;;1.55;;
10721;SDS011;5412;59.450;18.124;2022-11-11T03:51:13;5.50;;;0.90;;
10721;SDS011;5412;59.450;18.124;2022-11-11T03:53:39;2.35;;;0.88;;
10721;SDS011;5412;59.450;18.124;2022-11-11T03:56:05;2.40;;;0.57;;
10721;SDS011;5412;59.450;18.124;2022-11-11T03:58:31;0.95;;;0.82;;
10721;SDS011;5412;59.450;18.124;2022-11-11T04:00:56;3.00;;;0.88;;
10721;SDS011;5412;59.450;18.124;2022-11-11T04:03:22;5.18;;;0.77;;
10721;SDS011;5412;59.450;18.124;2022-11-11T04:06:07;1.77;;;0.73;;
10721;SDS011;5412;59.450;18.124;2022-11-11T04:08:52;2.38;;;0.80;;
10721;SDS011;5412;59.450;18.124;2022-11-11T04:11:42;4.90;;;0.90;;
10721;SDS011;5412;59.450;18.124;2022-11-11T04:14:12;3.53;;;0.80;;
10721;SDS011;5412;59.450;18.124;2022-11-11T04:16:57;1.23;;;0.60;;
10721;SDS011;5412;59.450;18.124;2022-11-11T04:19:23;3.03;;;1.15;;
10721;SDS011;5412;59.450;18.124;2022-11-11T04:22:07;3.70;;;1.20;;
10721;SDS011;5412;59.450;18.124;2022-11-11T04:24:33;4.38;;;0.90;;
10721;SDS011;5412;59.450;18.124;2022-11-11T04:27:18;1.38;;;0.85;;
10721;SDS011;5412;59.450;18.124;2022-11-11T04:29:44;3.63;;;0.90;;
10721;SDS011;5412;59.450;18.124;2022-11-11T04:32:18;3.10;;;1.02;;
10721;SDS011;5412;59.450;18.124;2022-11-11T04:35:11;3.25;;;1.05;;
10721;SDS011;5412;59.450;18.124;2022-11-11T04:37:45;3.05;;;1.00;;
10721;SDS011;5412;59.450;18.124;2022-11-11T04:40:13;4.47;;;1.10;;
10721;SDS011;5412;59.450;18.124;2022-11-11T04:42:58;2.72;;;1.10;;
10721;SDS011;5412;59.450;18.124;2022-11-11T04:45:24;1.27;;;0.90;;
10721;SDS011;5412;59.450;18.124;2022-11-11T04:50:22;2.80;;;1.00;;
10721;SDS011;5412;59.450;18.124;2022-11-11T04:52:48;3.28;;;1.08;;
10721;SDS011;5412;59.450;18.124;2022-11-11T04:55:14;1.50;;;0.70;;
10721;SDS011;5412;59.450;18.124;2022-11-11T04:57:59;2.38;;;0.95;;
10721;SDS011;5412;59.450;18.124;2022-11-11T05:00:24;2.22;;;1.00;;
10721;SDS011;5412;59.450;18.124;2022-11-11T05:02:54;0.60;;;0.60;;
10721;SDS011;5412;59.450;18.124;2022-11-11T05:05:39;4.13;;;0.98;;
10721;SDS011;5412;59.450;18.124;2022-11-11T05:08:23;3.40;;;1.02;;
10721;SDS011;5412;59.450;18.124;2022-11-11T05:11:07;2.67;;;0.80;;
10721;SDS011;5412;59.450;18.124;2022-11-11T05:13:33;2.40;;;1.08;;
10721;SDS011;5412;59.450;18.124;2022-11-11T05:16:21;1.58;;;0.73;;
10721;SDS011;5412;59.450;18.124;2022-11-11T05:19:09;2.42;;;0.70;;
10721;SDS011;5412;59.450;18.124;2022-11-11T05:21:54;2.65;;;0.80;;
10721;SDS011;5412;59.450;18.124;2022-11-11T05:24:25;2.97;;;0.90;;
10721;SDS011;5412;59.450;18.124;2022-11-11T05:27:09;1.52;;;0.77;;
10721;SDS011;5412;59.450;18.124;2022-11-11T05:29:35;2.78;;;1.10;;
10721;SDS011;5412;59.450;18.124;2022-11-11T05:32:00;2.58;;;0.93;;
10721;SDS011;5412;59.450;18.124;2022-11-11T05:34:26;5.70;;;1.05;;
10721;SDS011;5412;59.450;18.124;2022-11-11T05:36:52;2.42;;;1.00;;
10721;SDS011;5412;59.450;18.124;2022-11-11T05:39:18;3.10;;;1.15;;
10721;SDS011;5412;59.450;18.124;2022-11-11T05:41:43;4.80;;;0.95;;
10721;SDS011;5412;59.450;18.124;2022-11-11T05:44:09;3.90;;;1.42;;
10721;SDS011;5412;59.450;18.124;2022-11-11T05:46:34;4.20;;;1.35;;
10721;SDS011;5412;59.450;18.124;2022-11-11T05:49:00;2.50;;;0.93;;
10721;SDS011;5412;59.450;18.124;2022-11-11T05:51:42;3.58;;;1.10;;
10721;SDS011;5412;59.450;18.124;2022-11-11T05:54:08;2.30;;;1.08;;
10721;SDS011;5412;59.450;18.124;2022-11-11T05:56:34;2.38;;;0.82;;
10721;SDS011;5412;59.450;18.124;2022-11-11T05:59:00;2.80;;;1.02;;
10721;SDS011;5412;59.450;18.124;2022-11-11T06:01:25;2.72;;;1.42;;
10721;SDS011;5412;59.450;18.124;2022-11-11T06:03:51;4.80;;;1.63;;
10721;SDS011;5412;59.450;18.124;2022-11-11T06:06:17;4.32;;;1.10;;
10721;SDS011;5412;59.450;18.124;2022-11-11T06:08:42;4.75;;;1.35;;
10721;SDS011;5412;59.450;18.124;2022-11-11T06:11:08;3.67;;;1.40;;
10721;SDS011;5412;59.450;18.124;2022-11-11T06:13:34;5.60;;;1.23;;
10721;SDS011;5412;59.450;18.124;2022-11-11T06:16:00;3.42;;;0.88;;
10721;SDS011;5412;59.450;18.124;2022-11-11T06:18:26;2.95;;;1.20;;
10721;SDS011;5412;59.450;18.124;2022-11-11T06:20:52;2.35;;;0.95;;
10721;SDS011;5412;59.450;18.124;2022-11-11T06:23:22;5.28;;;1.25;;
10721;SDS011;5412;59.450;18.124;2022-11-11T06:25:48;5.65;;;1.60;;
10721;SDS011;5412;59.450;18.124;2022-11-11T06:28:33;5.07;;;1.10;;
10721;SDS011;5412;59.450;18.124;2022-11-11T06:30:59;5.65;;;1.50;;
10721;SDS011;5412;59.450;18.124;2022-11-11T06:33:25;3.65;;;1.00;;
10721;SDS011;5412;59.450;18.124;2022-11-11T06:35:50;3.28;;;1.17;;
10721;SDS011;5412;59.450;18.124;2022-11-11T06:38:16;1.95;;;0.82;;
10721;SDS011;5412;59.450;18.124;2022-11-11T06:40:43;4.55;;;1.13;;
10721;SDS011;5412;59.450;18.124;2022-11-11T06:43:09;6.30;;;1.58;;
10721;SDS011;5412;59.450;18.124;2022-11-11T06:45:35;2.30;;;1.20;;
10721;SDS011;5412;59.450;18.124;2022-11-11T06:48:02;2.67;;;1.50;;
10721;SDS011;5412;59.450;18.124;2022-11-11T06:50:28;3.67;;;1.42;;
10721;SDS011;5412;59.450;18.124;2022-11-11T06:52:55;4.70;;;1.30;;
10721;SDS011;5412;59.450;18.124;2022-11-11T06:55:20;5.18;;;1.10;;
10721;SDS011;5412;59.450;18.124;2022-11-11T06:57:46;4.80;;;1.40;;
10721;SDS011;5412;59.450;18.124;2022-11-11T07:00:12;4.05;;;1.30;;
10721;SDS011;5412;59.450;18.124;2022-11-11T07:02:38;4.25;;;1.80;;
10721;SDS011;5412;59.450;18.124;2022-11-11T07:05:04;4.70;;;1.23;;
10721;SDS011;5412;59.450;18.124;2022-11-11T07:07:30;4.00;;;1.73;;
10721;SDS011;5412;59.450;18.124;2022-11-11T07:09:55;4.05;;;1.48;;
10721;SDS011;5412;59.450;18.124;2022-11-11T07:12:21;6.72;;;2.15;;
10721;SDS011;5412;59.450;18.124;2022-11-11T07:14:47;3.45;;;1.27;;
10721;SDS011;5412;59.450;18.124;2022-11-11T07:17:13;6.15;;;1.63;;
10721;SDS011;5412;59.450;18.124;2022-11-11T07:19:39;4.20;;;1.02;;
10721;SDS011;5412;59.450;18.124;2022-11-11T07:22:05;3.67;;;1.20;;
10721;SDS011;5412;59.450;18.124;2022-11-11T07:24:30;4.68;;;1.40;;
10721;SDS011;5412;59.450;18.124;2022-11-11T07:26:56;4.65;;;1.52;;
10721;SDS011;5412;59.450;18.124;2022-11-11T07:29:23;5.00;;;1.67;;
10721;SDS011;5412;59.450;18.124;2022-11-11T07:31:49;6.03;;;1.70;;
10721;SDS011;5412;59.450;18.124;2022-11-11T07:34:15;5.97;;;1.60;;
10721;SDS011;5412;59.450;18.124;2022-11-11T07:36:41;4.03;;;1.02;;
10721;SDS011;5412;59.450;18.124;2022-11-11T07:39:06;7.03;;;1.73;;
10721;SDS011;5412;59.450;18.124;2022-11-11T07:41:32;5.95;;;2.20;;
10721;SDS011;5412;59.450;18.124;2022-11-11T07:43:58;5.22;;;1.42;;
10721;SDS011;5412;59.450;18.124;2022-11-11T07:46:24;4.95;;;1.48;;
10721;SDS011;5412;59.450;18.124;2022-11-11T07:48:49;6.72;;;1.75;;
10721;SDS011;5412;59.450;18.124;2022-11-11T07:51:15;4.15;;;1.60;;
10721;SDS011;5412;59.450;18.124;2022-11-11T07:53:41;7.70;;;1.75;;
10721;SDS011;5412;59.450;18.124;2022-11-11T07:56:07;4.38;;;1.40;;
10721;SDS011;5412;59.450;18.124;2022-11-11T07:58:32;3.65;;;1.83;;
10721;SDS011;5412;59.450;18.124;2022-11-11T08:00:58;6.88;;;1.95;;
10721;SDS011;5412;59.450;18.124;2022-11-11T08:03:24;5.97;;;1.58;;
10721;SDS011;5412;59.450;18.124;2022-11-11T08:05:50;7.60;;;1.45;;
10721;SDS011;5412;59.450;18.124;2022-11-11T08:08:16;6.55;;;1.63;;
10721;SDS011;5412;59.450;18.124;2022-11-11T08:10:41;6.43;;;1.73;;
10721;SDS011;5412;59.450;18.124;2022-11-11T08:13:08;6.35;;;1.85;;
10721;SDS011;5412;59.450;18.124;2022-11-11T08:15:54;7.15;;;2.10;;
10721;SDS011;5412;59.450;18.124;2022-11-11T08:18:20;5.82;;;1.83;;
10721;SDS011;5412;59.450;18.124;2022-11-11T08:20:45;8.23;;;1.80;;
10721;SDS011;5412;59.450;18.124;2022-11-11T08:23:11;8.25;;;1.92;;
10721;SDS011;5412;59.450;18.124;2022-11-11T08:25:38;4.43;;;1.60;;
10721;SDS011;5412;59.450;18.124;2022-11-11T08:28:05;7.35;;;2.00;;
10721;SDS011;5412;59.450;18.124;2022-11-11T08:30:31;7.15;;;2.22;;
10721;SDS011;5412;59.450;18.124;2022-11-11T08:33:01;6.53;;;1.73;;
10721;SDS011;5412;59.450;18.124;2022-11-11T08:35:28;7.18;;;2.28;;
10721;SDS011;5412;59.450;18.124;2022-11-11T08:37:55;7.35;;;1.98;;
10721;SDS011;5412;59.450;18.124;2022-11-11T08:40:24;8.57;;;2.08;;
10721;SDS011;5412;59.450;18.124;2022-11-11T08:42:50;9.52;;;2.17;;
10721;SDS011;5412;59.450;18.124;2022-11-11T08:45:19;7.32;;;1.92;;
10721;SDS011;5412;59.450;18.124;2022-11-11T08:47:45;9.32;;;2.47;;
10721;SDS011;5412;59.450;18.124;2022-11-11T08:50:10;11.07;;;2.28;;
10721;SDS011;5412;59.450;18.124;2022-11-11T08:52:37;8.45;;;2.22;;
10721;SDS011;5412;59.450;18.124;2022-11-11T08:55:03;6.78;;;2.35;;
10721;SDS011;5412;59.450;18.124;2022-11-11T08:57:29;8.55;;;2.20;;
10721;SDS011;5412;59.450;18.124;2022-11-11T08:59:55;12.68;;;3.05;;
10721;SDS011;5412;59.450;18.124;2022-11-11T09:02:20;8.15;;;2.33;;
10721;SDS011;5412;59.450;18.124;2022-11-11T09:04:46;7.72;;;2.05;;
10721;SDS011;5412;59.450;18.124;2022-11-11T09:07:12;10.25;;;2.40;;
10721;SDS011;5412;59.450;18.124;2022-11-11T09:09:37;9.00;;;2.15;;
10721;SDS011;5412;59.450;18.124;2022-11-11T09:12:03;8.98;;;2.88;;
10721;SDS011;5412;59.450;18.124;2022-11-11T09:14:29;7.95;;;2.28;;
10721;SDS011;5412;59.450;18.124;2022-11-11T09:16:55;8.48;;;2.28;;
10721;SDS011;5412;59.450;18.124;2022-11-11T09:19:20;10.35;;;2.50;;
10721;SDS011;5412;59.450;18.124;2022-11-11T09:21:46;9.55;;;2.03;;
10721;SDS011;5412;59.450;18.124;2022-11-11T09:24:12;7.70;;;2.03;;
10721;SDS011;5412;59.450;18.124;2022-11-11T09:26:38;8.82;;;2.10;;
10721;SDS011;5412;59.450;18.124;2022-11-11T09:29:03;8.65;;;2.00;;
10721;SDS011;5412;59.450;18.124;2022-11-11T09:31:29;7.45;;;2.30;;
10721;SDS011;5412;59.450;18.124;2022-11-11T09:33:55;10.02;;;2.88;;
10721;SDS011;5412;59.450;18.124;2022-11-11T09:36:20;12.65;;;2.45;;
10721;SDS011;5412;59.450;18.124;2022-11-11T09:38:46;6.88;;;2.30;;
10721;SDS011;5412;59.450;18.124;2022-11-11T09:41:19;8.00;;;2.28;;
10721;SDS011;5412;59.450;18.124;2022-11-11T09:43:55;9.57;;;2.00;;
10721;SDS011;5412;59.450;18.124;2022-11-11T09:51:39;8.93;;;1.88;;
10721;SDS011;5412;59.450;18.124;2022-11-11T09:54:08;10.25;;;2.47;;
10721;SDS011;5412;59.450;18.124;2022-11-11T09:56:39;15.38;;;2.47;;
10721;SDS011;5412;59.450;18.124;2022-11-11T10:01:49;7.65;;;1.85;;
10721;SDS011;5412;59.450;18.124;2022-11-11T10:07:00;9.05;;;2.40;;
10721;SDS011;5412;59.450;18.124;2022-11-11T10:09:40;9.88;;;2.55;;
10721;SDS011;5412;59.450;18.124;2022-11-11T10:12:14;5.38;;;2.00;;
10721;SDS011;5412;59.450;18.124;2022-11-11T10:14:42;7.93;;;2.10;;
10721;SDS011;5412;59.450;18.124;2022-11-11T10:17:17;7.65;;;2.00;;
10721;SDS011;5412;59.450;18.124;2022-11-11T10:22:44;7.18;;;2.10;;
10721;SDS011;5412;59.450;18.124;2022-11-11T10:27:48;10.88;;;1.98;;
10721;SDS011;5412;59.450;18.124;2022-11-11T10:32:44;7.88;;;2.33;;
10721;SDS011;5412;59.450;18.124;2022-11-11T10:35:17;5.22;;;2.00;;
10721;SDS011;5412;59.450;18.124;2022-11-11T10:37:46;7.95;;;2.33;;
10721;SDS011;5412;59.450;18.124;2022-11-11T10:40:27;5.55;;;1.75;;
10721;SDS011;5412;59.450;18.124;2022-11-11T10:42:59;9.45;;;2.35;;
10721;SDS011;5412;59.450;18.124;2022-11-11T10:45:26;9.00;;;1.88;;
10721;SDS011;5412;59.450;18.124;2022-11-11T10:48:08;5.15;;;1.80;;
10721;SDS011;5412;59.450;18.124;2022-11-11T10:50:59;5.22;;;1.90;;
10721;SDS011;5412;59.450;18.124;2022-11-11T10:58:23;6.00;;;1.75;;
10721;SDS011;5412;59.450;18.124;2022-11-11T11:00:55;5.07;;;2.38;;
10721;SDS011;5412;59.450;18.124;2022-11-11T11:03:34;5.93;;;1.92;;
10721;SDS011;5412;59.450;18.124;2022-11-11T11:06:16;9.02;;;1.90;;
10721;SDS011;5412;59.450;18.124;2022-11-11T11:08:47;5.20;;;1.58;;
10721;SDS011;5412;59.450;18.124;2022-11-11T11:11:29;7.45;;;1.52;;
10721;SDS011;5412;59.450;18.124;2022-11-11T11:13:59;7.53;;;1.38;;
10721;SDS011;5412;59.450;18.124;2022-11-11T11:16:30;6.60;;;1.90;;
10721;SDS011;5412;59.450;18.124;2022-11-11T11:22:01;6.68;;;1.83;;
10721;SDS011;5412;59.450;18.124;2022-11-11T11:24:29;3.60;;;1.20;;
10721;SDS011;5412;59.450;18.124;2022-11-11T11:27:03;4.07;;;1.45;;
10721;SDS011;5412;59.450;18.124;2022-11-11T11:32:36;5.15;;;1.70;;
10721;SDS011;5412;59.450;18.124;2022-11-11T11:34:56;5.93;;;1.60;;
10721;SDS011;5412;59.450;18.124;2022-11-11T11:37:23;5.63;;;1.35;;
10721;SDS011;5412;59.450;18.124;2022-11-11T11:40:00;4.60;;;1.50;;
10721;SDS011;5412;59.450;18.124;2022-11-11T11:44:53;1.98;;;1.17;;
10721;SDS011;5412;59.450;18.124;2022-11-11T11:55:42;2.20;;;1.05;;
10721;SDS011;5412;59.450;18.124;2022-11-11T12:01:09;4.20;;;0.95;;
10721;SDS011;5412;59.450;18.124;2022-11-11T12:12:39;2.28;;;1.38;;
10721;SDS011;5412;59.450;18.124;2022-11-11T12:20:51;3.72;;;1.20;;
10721;SDS011;5412;59.450;18.124;2022-11-11T13:06:23;4.38;;;1.02;;
10721;SDS011;5412;59.450;18.124;2022-11-11T13:11:59;2.58;;;1.00;;
10721;SDS011;5412;59.450;18.124;2022-11-11T13:17:25;5.55;;;1.63;;
10721;SDS011;5412;59.450;18.124;2022-11-11T13:19:52;3.63;;;1.33;;
10721;SDS011;5412;59.450;18.124;2022-11-11T13:24:47;5.53;;;1.33;;
10721;SDS011;5412;59.450;18.124;2022-11-11T13:33:20;4.30;;;1.02;;
10721;SDS011;5412;59.450;18.124;2022-11-11T13:35:52;3.83;;;1.10;;
10721;SDS011;5412;59.450;18.124;2022-11-11T13:40:52;3.50;;;0.98;;
10721;SDS011;5412;59.450;18.124;2022-11-11T13:45:51;2.90;;;1.27;;
10721;SDS011;5412;59.450;18.124;2022-11-11T13:51:12;3.92;;;1.30;;
10721;SDS011;5412;59.450;18.124;2022-11-11T13:53:45;1.65;;;1.00;;
10721;SDS011;5412;59.450;18.124;2022-11-11T13:56:12;4.65;;;1.60;;
10721;SDS011;5412;59.450;18.124;2022-11-11T13:58:48;3.97;;;1.27;;
10721;SDS011;5412;59.450;18.124;2022-11-11T14:01:14;7.72;;;1.55;;
10721;SDS011;5412;59.450;18.124;2022-11-11T14:08:50;6.10;;;1.40;;
10721;SDS011;5412;59.450;18.124;2022-11-11T14:13:49;5.25;;;1.33;;
10721;SDS011;5412;59.450;18.124;2022-11-11T14:21:41;4.60;;;1.35;;
10721;SDS011;5412;59.450;18.124;2022-11-11T14:24:10;3.30;;;1.30;;
10721;SDS011;5412;59.450;18.124;2022-11-11T14:27:01;3.85;;;1.40;;
10721;SDS011;5412;59.450;18.124;2022-11-11T14:29:32;5.28;;;1.17;;
10721;SDS011;5412;59.450;18.124;2022-11-11T14:34:50;6.72;;;1.33;;
10721;SDS011;5412;59.450;18.124;2022-11-11T14:40:27;3.88;;;1.17;;
10721;SDS011;5412;59.450;18.124;2022-11-11T14:42:57;4.05;;;1.33;;
10721;SDS011;5412;59.450;18.124;2022-11-11T14:47:56;3.25;;;1.13;;
10721;SDS011;5412;59.450;18.124;2022-11-11T14:53:00;4.82;;;1.98;;
10721;SDS011;5412;59.450;18.124;2022-11-11T14:55:37;2.92;;;1.30;;
10721;SDS011;5412;59.450;18.124;2022-11-11T14:58:09;5.68;;;1.85;;
10721;SDS011;5412;59.450;18.124;2022-11-11T15:00:43;5.18;;;1.48;;
10721;SDS011;5412;59.450;18.124;2022-11-11T15:03:29;3.58;;;1.40;;
10721;SDS011;5412;59.450;18.124;2022-11-11T15:06:09;6.03;;;1.80;;
10721;SDS011;5412;59.450;18.124;2022-11-11T15:09:02;4.03;;;1.40;;
10721;SDS011;5412;59.450;18.124;2022-11-11T15:39:16;5.72;;;1.73;;
10721;SDS011;5412;59.450;18.124;2022-11-11T15:41:46;6.57;;;2.05;;
10721;SDS011;5412;59.450;18.124;2022-11-11T15:44:21;5.88;;;1.45;;
10721;SDS011;5412;59.450;18.124;2022-11-11T15:46:50;5.50;;;1.73;;
10721;SDS011;5412;59.450;18.124;2022-11-11T15:54:57;5.53;;;1.52;;
10721;SDS011;5412;59.450;18.124;2022-11-11T15:57:32;4.95;;;1.60;;
10721;SDS011;5412;59.450;18.124;2022-11-11T15:59:59;7.65;;;2.20;;
10721;SDS011;5412;59.450;18.124;2022-11-11T16:02:31;5.80;;;1.90;;
10721;SDS011;5412;59.450;18.124;2022-11-11T16:05:00;4.75;;;1.30;;
10721;SDS011;5412;59.450;18.124;2022-11-11T16:07:35;7.43;;;1.90;;
10721;SDS011;5412;59.450;18.124;2022-11-11T16:10:07;3.03;;;1.60;;
10721;SDS011;5412;59.450;18.124;2022-11-11T16:12:50;7.75;;;2.05;;
10721;SDS011;5412;59.450;18.124;2022-11-11T16:15:42;5.45;;;1.65;;
10721;SDS011;5412;59.450;18.124;2022-11-11T16:18:16;8.40;;;1.77;;
10721;SDS011;5412;59.450;18.124;2022-11-11T16:23:23;6.13;;;1.70;;
10721;SDS011;5412;59.450;18.124;2022-11-11T16:25:49;7.10;;;1.80;;
10721;SDS011;5412;59.450;18.124;2022-11-11T16:28:16;5.25;;;1.73;;
10721;SDS011;5412;59.450;18.124;2022-11-11T16:30:42;4.55;;;1.52;;
10721;SDS011;5412;59.450;18.124;2022-11-11T16:33:18;5.72;;;1.75;;
10721;SDS011;5412;59.450;18.124;2022-11-11T16:36:05;6.25;;;1.70;;
10721;SDS011;5412;59.450;18.124;2022-11-11T16:38:33;6.03;;;1.67;;
10721;SDS011;5412;59.450;18.124;2022-11-11T16:40:59;6.20;;;1.92;;
10721;SDS011;5412;59.450;18.124;2022-11-11T16:43:30;9.68;;;2.30;;
10721;SDS011;5412;59.450;18.124;2022-11-11T16:46:01;7.00;;;1.70;;
10721;SDS011;5412;59.450;18.124;2022-11-11T16:51:03;8.18;;;2.22;;
10721;SDS011;5412;59.450;18.124;2022-11-11T16:53:35;5.82;;;1.95;;
10721;SDS011;5412;59.450;18.124;2022-11-11T16:56:07;9.43;;;1.75;;
10721;SDS011;5412;59.450;18.124;2022-11-11T16:58:41;11.63;;;1.98;;
10721;SDS011;5412;59.450;18.124;2022-11-11T17:01:07;6.30;;;2.30;;
10721;SDS011;5412;59.450;18.124;2022-11-11T17:03:33;5.95;;;1.75;;
10721;SDS011;5412;59.450;18.124;2022-11-11T17:06:00;6.85;;;1.90;;
10721;SDS011;5412;59.450;18.124;2022-11-11T17:08:45;6.25;;;1.85;;
10721;SDS011;5412;59.450;18.124;2022-11-11T17:14:04;7.20;;;1.95;;
10721;SDS011;5412;59.450;18.124;2022-11-11T17:16:30;4.35;;;1.73;;
10721;SDS011;5412;59.450;18.124;2022-11-11T17:18:56;9.13;;;2.35;;
10721;SDS011;5412;59.450;18.124;2022-11-11T17:21:24;5.70;;;1.48;;
10721;SDS011;5412;59.450;18.124;2022-11-11T17:23:51;4.47;;;1.70;;
10721;SDS011;5412;59.450;18.124;2022-11-11T17:26:17;6.78;;;2.20;;
10721;SDS011;5412;59.450;18.124;2022-11-11T17:28:43;7.70;;;1.83;;
10721;SDS011;5412;59.450;18.124;2022-11-11T17:31:10;3.97;;;1.67;;
10721;SDS011;5412;59.450;18.124;2022-11-11T17:33:37;4.57;;;1.85;;
10721;SDS011;5412;59.450;18.124;2022-11-11T17:36:03;8.70;;;1.70;;
10721;SDS011;5412;59.450;18.124;2022-11-11T17:38:33;4.78;;;1.58;;
10721;SDS011;5412;59.450;18.124;2022-11-11T17:41:01;4.47;;;1.52;;
10721;SDS011;5412;59.450;18.124;2022-11-11T17:43:27;3.88;;;1.80;;
10721;SDS011;5412;59.450;18.124;2022-11-11T17:45:53;4.40;;;1.67;;
10721;SDS011;5412;59.450;18.124;2022-11-11T17:48:20;3.55;;;1.42;;
10721;SDS011;5412;59.450;18.124;2022-11-11T17:50:45;5.47;;;1.55;;
10721;SDS011;5412;59.450;18.124;2022-11-11T17:53:11;5.80;;;1.67;;
10721;SDS011;5412;59.450;18.124;2022-11-11T17:55:37;12.57;;;1.80;;
10721;SDS011;5412;59.450;18.124;2022-11-11T17:58:02;7.22;;;2.00;;
10721;SDS011;5412;59.450;18.124;2022-11-11T18:00:28;5.28;;;1.75;;
10721;SDS011;5412;59.450;18.124;2022-11-11T18:02:54;5.53;;;1.85;;
10721;SDS011;5412;59.450;18.124;2022-11-11T18:05:20;7.43;;;1.95;;
10721;SDS011;5412;59.450;18.124;2022-11-11T18:07:46;5.10;;;1.88;;
10721;SDS011;5412;59.450;18.124;2022-11-11T18:10:12;5.07;;;1.92;;
10721;SDS011;5412;59.450;18.124;2022-11-11T18:12:38;8.25;;;2.13;;
10721;SDS011;5412;59.450;18.124;2022-11-11T18:15:05;10.45;;;1.95;;
10721;SDS011;5412;59.450;18.124;2022-11-11T18:17:32;5.90;;;1.85;;
10721;SDS011;5412;59.450;18.124;2022-11-11T18:19:58;5.85;;;2.30;;